createdAt,value
2023-04-02T00:00:22.223Z,100629.56
2023-04-02T00:02:59.815Z,100632.16
2023-04-02T00:05:51.710Z,100643.25
2023-04-02T00:08:26.795Z,100633.69
2023-04-02T00:10:56.717Z,100649.09
2023-04-02T00:13:32.877Z,100653.94
2023-04-02T00:16:03.267Z,100652.88
2023-04-02T00:18:31.857Z,100653.28
2023-04-02T00:21:09.108Z,100654.97
2023-04-02T00:23:37.793Z,100660.53
2023-04-02T00:26:08.292Z,100654.44
2023-04-02T00:28:37.737Z,100665.19
2023-04-02T00:31:06.577Z,100658.16
2023-04-02T00:33:34.582Z,100660.97
2023-04-02T00:36:08.712Z,100677.63
2023-04-02T00:38:36.859Z,100676.34
2023-04-02T00:41:07.656Z,100673.03
2023-04-02T00:43:39.601Z,100677.13
2023-04-02T00:46:14.194Z,100690.16
2023-04-02T00:48:46.551Z,100681.25
2023-04-02T00:51:19.176Z,100689.22
2023-04-02T00:53:49.105Z,100690.03
2023-04-02T00:56:25.547Z,100694.72
2023-04-02T00:58:57.024Z,100703.56
2023-04-02T01:01:28.332Z,100706.16
2023-04-02T01:03:59.136Z,100690.13
2023-04-02T01:06:31.252Z,100705.41
2023-04-02T01:09:15.858Z,100705.91
2023-04-02T01:12:01.910Z,100708.13
2023-04-02T01:14:44.176Z,100708.50
2023-04-02T01:17:26.360Z,100712.53
2023-04-02T01:20:37.835Z,100722.03
2023-04-02T01:23:11.370Z,100734.69
2023-04-02T01:25:46.707Z,100735.59
2023-04-02T01:28:20.477Z,100739.50
2023-04-02T01:30:53.675Z,100748.53
2023-04-02T01:33:24.652Z,100760.25
2023-04-02T01:35:57.959Z,100749.78
2023-04-02T01:38:29.952Z,100750.34
2023-04-02T01:41:04.978Z,100765.44
2023-04-02T01:43:40.277Z,100766.28
2023-04-02T01:46:26.810Z,100763.97
2023-04-02T01:48:55.391Z,100773.16
2023-04-02T01:51:29.452Z,100771.28
2023-04-02T01:54:01.057Z,100783.81
2023-04-02T01:56:30.383Z,100783.31
2023-04-02T01:58:59.772Z,100790.19
2023-04-02T02:01:36.825Z,100796.91
2023-04-02T02:04:07.411Z,100804.34
2023-04-02T02:06:36.098Z,100807.97
2023-04-02T02:09:06.269Z,100822.66
2023-04-02T02:11:36.617Z,100817.19
2023-04-02T02:14:14.132Z,100822.63
2023-04-02T02:16:46.796Z,100816.38
2023-04-02T02:19:28.190Z,100830.63
2023-04-02T02:21:59.272Z,100835.34
2023-04-02T02:24:31.583Z,100839.84
2023-04-02T02:27:22.430Z,100833.84
2023-04-02T02:29:56.368Z,100842.09
2023-04-02T02:32:30.062Z,100845.56
2023-04-02T02:35:04.435Z,100851.84
2023-04-02T02:37:38.153Z,100866.72
2023-04-02T02:40:12.476Z,100856.19
2023-04-02T02:42:45.403Z,100870.31
2023-04-02T02:45:18.954Z,100866.53
2023-04-02T02:47:50.777Z,100878.13
2023-04-02T02:50:23.019Z,100883.34
2023-04-02T02:52:54.940Z,100883.28
2023-04-02T02:55:27.436Z,100888.78
2023-04-02T02:58:12.628Z,100897.41
2023-04-02T03:00:49.220Z,100900.44
2023-04-02T03:03:23.141Z,100904.09
2023-04-02T03:05:59.182Z,100910.72
2023-04-02T03:08:33.450Z,100925.78
2023-04-02T03:11:09.017Z,100916.91
2023-04-02T03:13:39.999Z,100924.88
2023-04-02T03:16:16.165Z,100928.38
2023-04-02T03:18:52.846Z,100934.88
2023-04-02T03:21:32.112Z,100936.28
2023-04-02T03:24:04.384Z,100946.56
2023-04-02T03:26:39.464Z,100945.16
2023-04-02T03:29:14.908Z,100936.91
2023-04-02T03:31:48.151Z,100949.19
2023-04-02T03:34:25.547Z,100956.47
2023-04-02T03:36:59.508Z,100961.75
2023-04-02T03:39:34.401Z,100968.63
2023-04-02T03:42:08.622Z,100970.34
2023-04-02T03:44:45.466Z,100977.03
2023-04-02T03:47:19.190Z,100978.47
2023-04-02T03:49:54.871Z,100979.50
2023-04-02T03:52:27.111Z,100979.22
2023-04-02T03:54:59.880Z,100990.72
2023-04-02T03:57:47.724Z,100996.75
2023-04-02T04:00:21.469Z,100993.47
2023-04-02T04:02:59.967Z,100989.72
2023-04-02T04:05:35.814Z,101005.53
2023-04-02T04:08:07.549Z,101021.06
2023-04-02T04:10:36.320Z,101015.09
2023-04-02T04:13:10.332Z,101022.03
2023-04-02T04:15:43.485Z,101027.16
2023-04-02T04:18:24.079Z,101029.75
2023-04-02T04:20:58.314Z,101038.50
2023-04-02T04:26:10.457Z,101050.22
2023-04-02T04:28:58.225Z,101050.47
2023-04-02T04:31:31.205Z,101055.63
2023-04-02T04:34:04.420Z,101055.22
2023-04-02T04:36:53.947Z,101066.16
2023-04-02T04:39:31.780Z,101066.69
2023-04-02T04:42:02.393Z,101081.41
2023-04-02T04:44:41.135Z,101086.50
2023-04-02T04:47:16.558Z,101083.22
2023-04-02T04:49:48.270Z,101082.91
2023-04-02T04:52:23.175Z,101087.47
2023-04-02T04:54:52.031Z,101094.13
2023-04-02T04:57:32.393Z,101104.63
2023-04-02T05:00:11.137Z,101100.41
2023-04-02T05:02:46.127Z,101101.03
2023-04-02T05:05:21.103Z,101113.63
2023-04-02T05:07:59.053Z,101121.25
2023-04-02T05:10:34.256Z,101121.81
2023-04-02T05:13:05.663Z,101123.06
2023-04-02T05:15:40.091Z,101129.34
2023-04-02T05:18:19.026Z,101136.88
2023-04-02T05:20:54.021Z,101152.91
2023-04-02T05:23:28.084Z,101147.88
2023-04-02T05:26:04.952Z,101150.47
2023-04-02T05:28:39.971Z,101154.31
2023-04-02T05:31:13.474Z,101152.88
2023-04-02T05:33:47.556Z,101164.09
2023-04-02T05:36:21.599Z,101163.47
2023-04-02T05:38:56.252Z,101170.38
2023-04-02T05:41:36.828Z,101171.25
2023-04-02T05:44:11.814Z,101173.66
2023-04-02T05:46:45.235Z,101167.66
2023-04-02T05:49:21.445Z,101185.94
2023-04-02T05:51:55.873Z,101182.53
2023-04-02T05:54:31.492Z,101197.06
2023-04-02T05:57:03.768Z,101198.81
2023-04-02T05:59:38.359Z,101192.44
2023-04-02T06:02:12.832Z,101208.44
2023-04-02T06:04:47.564Z,101206.69
2023-04-02T06:07:21.499Z,101210.69
2023-04-02T06:09:58.108Z,101218.00
2023-04-02T06:15:01.941Z,101230.38
2023-04-02T06:17:44.274Z,101229.38
2023-04-02T06:20:16.484Z,101243.28
2023-04-02T06:22:50.513Z,101238.41
2023-04-02T06:25:24.990Z,101240.44
2023-04-02T06:27:57.988Z,101247.81
2023-04-02T06:30:29.320Z,101257.00
2023-04-02T06:32:57.810Z,101260.75
2023-04-02T06:35:27.045Z,101255.34
2023-04-02T06:38:04.742Z,101265.50
2023-04-02T06:40:42.583Z,101268.78
2023-04-02T06:43:33.414Z,101275.97
2023-04-02T06:46:26.918Z,101278.28
2023-04-02T06:49:10.735Z,101287.06
2023-04-02T06:51:41.815Z,101290.34
2023-04-02T06:54:16.058Z,101290.91
2023-04-02T06:56:49.687Z,101294.97
2023-04-02T06:59:27.294Z,101309.22
2023-04-02T07:02:03.418Z,101309.19
2023-04-02T07:04:32.121Z,101305.53
2023-04-02T07:07:00.473Z,101313.91
2023-04-02T07:09:32.875Z,101313.59
2023-04-02T07:12:12.485Z,101320.16
2023-04-02T07:14:41.140Z,101320.44
2023-04-02T07:17:16.788Z,101321.59
2023-04-02T07:19:49.372Z,101320.44
2023-04-02T07:22:20.759Z,101324.19
2023-04-02T07:24:55.451Z,101328.31
2023-04-02T07:27:24.775Z,101320.94
2023-04-02T07:29:52.675Z,101331.81
2023-04-02T07:32:20.756Z,101328.66
2023-04-02T07:34:49.002Z,101332.97
2023-04-02T07:37:17.093Z,101334.22
2023-04-02T07:39:44.972Z,101331.31
2023-04-02T07:42:12.994Z,101339.34
2023-04-02T07:44:42.246Z,101333.75
2023-04-02T07:47:10.598Z,101348.50
2023-04-02T07:49:38.717Z,101343.97
2023-04-02T07:52:07.278Z,101358.34
2023-04-02T07:54:35.741Z,101361.56
2023-04-02T07:57:03.804Z,101372.09
2023-04-02T07:59:31.777Z,101375.97
2023-04-02T08:02:01.122Z,101385.50
2023-04-02T08:04:29.108Z,101385.66
2023-04-02T08:06:57.176Z,101396.66
2023-04-02T08:09:25.136Z,101395.28
2023-04-02T08:11:53.105Z,101401.19
2023-04-02T08:14:21.029Z,101406.28
2023-04-02T08:16:51.007Z,101408.69
2023-04-02T08:19:20.833Z,101413.81
2023-04-02T08:21:51.480Z,101407.88
2023-04-02T08:24:21.578Z,101412.66
2023-04-02T08:26:51.409Z,101409.66
2023-04-02T08:29:19.345Z,101424.34
2023-04-02T08:31:47.435Z,101418.97
2023-04-02T08:34:15.443Z,101427.22
2023-04-02T08:36:45.468Z,101426.97
2023-04-02T08:39:13.850Z,101432.44
2023-04-02T08:41:48.703Z,101440.16
2023-04-02T08:44:32.391Z,101439.19
2023-04-02T08:47:04.394Z,101440.25
2023-04-02T08:49:36.288Z,101452.84
2023-04-02T08:52:05.666Z,101456.56
2023-04-02T08:54:37.907Z,101455.56
2023-04-02T08:57:16.609Z,101459.16
2023-04-02T08:59:45.907Z,101464.28
2023-04-02T09:02:29.948Z,101470.25
2023-04-02T09:04:59.966Z,101482.00
2023-04-02T09:07:29.690Z,101478.66
2023-04-02T09:09:58.149Z,101492.50
2023-04-02T09:12:29.523Z,101497.13
2023-04-02T09:15:16.226Z,101496.41
2023-04-02T09:17:53.556Z,101504.97
2023-04-02T09:20:26.153Z,101488.22
2023-04-02T09:22:57.684Z,101494.72
2023-04-02T09:25:27.903Z,101496.13
2023-04-02T09:27:58.858Z,101502.94
2023-04-02T09:30:41.896Z,101504.91
2023-04-02T09:33:10.164Z,101505.13
2023-04-02T09:35:54.299Z,101506.72
2023-04-02T09:38:28.082Z,101515.13
2023-04-02T09:41:00.601Z,101516.38
2023-04-02T09:43:31.297Z,101531.34
2023-04-02T09:46:02.029Z,101523.66
2023-04-02T09:48:33.493Z,101542.47
2023-04-02T09:51:14.580Z,101538.06
2023-04-02T09:53:45.886Z,101538.34
2023-04-02T09:56:19.802Z,101545.06
2023-04-02T09:59:04.771Z,101551.41
2023-04-02T10:01:34.838Z,101554.47
2023-04-02T10:04:04.809Z,101549.66
2023-04-02T10:06:34.319Z,101557.31
2023-04-02T10:09:22.125Z,101568.25
2023-04-02T10:11:51.836Z,101567.19
2023-04-02T10:14:24.698Z,101570.03
2023-04-02T10:16:56.614Z,101578.84
2023-04-02T10:19:30.673Z,101580.69
2023-04-02T10:22:01.428Z,101576.88
2023-04-02T10:24:30.716Z,101579.63
2023-04-02T10:27:09.747Z,101581.78
2023-04-02T10:29:55.758Z,101590.69
2023-04-02T10:32:31.045Z,101580.91
2023-04-02T10:35:04.067Z,101587.69
2023-04-02T10:37:55.996Z,101595.78
2023-04-02T10:40:29.603Z,101592.81
2023-04-02T10:43:23.693Z,101595.69
2023-04-02T10:45:57.702Z,101606.94
2023-04-02T10:48:34.960Z,101599.63
2023-04-02T10:51:07.800Z,101606.03
2023-04-02T10:53:47.426Z,101609.41
2023-04-02T10:56:17.067Z,101614.63
2023-04-02T10:58:57.460Z,101621.94
2023-04-02T11:01:28.007Z,101626.06
2023-04-02T11:04:00.446Z,101621.72
2023-04-02T11:06:33.893Z,101622.56
2023-04-02T11:09:05.879Z,101629.34
2023-04-02T11:11:39.637Z,101634.91
2023-04-02T11:14:14.769Z,101633.66
2023-04-02T11:16:44.764Z,101643.72
2023-04-02T11:19:28.749Z,101644.84
2023-04-02T11:22:01.328Z,101652.94
2023-04-02T11:24:39.682Z,101648.75
2023-04-02T11:27:22.365Z,101664.63
2023-04-02T11:29:53.482Z,101656.34
2023-04-02T11:33:05.766Z,101668.69
2023-04-02T11:35:40.796Z,101670.47
2023-04-02T11:38:52.476Z,101677.84
2023-04-02T11:41:57.872Z,101681.72
2023-04-02T11:44:33.299Z,101677.25
2023-04-02T11:47:21.609Z,101678.38
2023-04-02T11:50:38.699Z,101684.66
2023-04-02T11:53:24.819Z,101677.19
2023-04-02T11:56:20.980Z,101677.56
2023-04-02T11:59:06.116Z,101675.78
2023-04-02T12:02:00.661Z,101678.19
2023-04-02T12:05:14.479Z,101685.16
2023-04-02T12:08:05.728Z,101694.06
2023-04-02T12:10:49.966Z,101691.03
2023-04-02T12:13:20.995Z,101688.44
2023-04-02T12:15:50.325Z,101701.34
2023-04-02T12:18:24.190Z,101700.34
2023-04-02T12:20:55.085Z,101708.00
2023-04-02T12:23:29.143Z,101704.25
2023-04-02T12:26:02.085Z,101708.00
2023-04-02T12:28:33.727Z,101713.81
2023-04-02T12:31:12.562Z,101708.00
2023-04-02T12:33:43.664Z,101716.50
2023-04-02T12:36:20.710Z,101722.34
2023-04-02T12:38:51.157Z,101728.66
2023-04-02T12:41:24.982Z,101729.31
2023-04-02T12:44:00.329Z,101726.31
2023-04-02T12:46:29.301Z,101726.22
2023-04-02T12:49:04.918Z,101722.06
2023-04-02T12:51:33.195Z,101712.22
2023-04-02T12:54:01.158Z,101730.19
2023-04-02T12:56:29.068Z,101727.91
2023-04-02T12:58:58.571Z,101726.41
2023-04-02T13:01:29.286Z,101724.91
2023-04-02T13:04:06.569Z,101734.59
2023-04-02T13:06:35.221Z,101731.91
2023-04-02T13:09:06.535Z,101733.31
2023-04-02T13:11:36.798Z,101738.72
2023-04-02T13:14:07.439Z,101734.31
2023-04-02T13:16:37.513Z,101732.75
2023-04-02T13:19:29.723Z,101737.38
2023-04-02T13:21:59.673Z,101742.03
2023-04-02T13:24:29.195Z,101745.19
2023-04-02T13:26:59.125Z,101747.69
2023-04-02T13:29:29.516Z,101741.53
2023-04-02T13:32:01.101Z,101739.56
2023-04-02T13:34:31.001Z,101741.53
2023-04-02T13:36:59.690Z,101736.66
2023-04-02T13:39:30.096Z,101747.78
2023-04-02T13:41:59.843Z,101752.44
2023-04-02T13:44:30.326Z,101748.25
2023-04-02T13:47:02.079Z,101759.34
2023-04-02T13:49:32.415Z,101752.81
2023-04-02T13:52:05.259Z,101758.28
2023-04-02T13:54:44.735Z,101759.38
2023-04-02T13:57:12.769Z,101761.34
2023-04-02T13:59:40.698Z,101756.59
2023-04-02T14:02:12.764Z,101757.06
2023-04-02T14:04:47.060Z,101758.56
2023-04-02T14:07:41.316Z,101760.66
2023-04-02T14:10:23.554Z,101754.47
2023-04-02T14:13:09.785Z,101765.06
2023-04-02T14:15:48.992Z,101767.97
2023-04-02T14:18:39.444Z,101763.59
2023-04-02T14:21:18.008Z,101767.41
2023-04-02T14:23:57.701Z,101776.53
2023-04-02T14:26:32.940Z,101781.41
2023-04-02T14:29:07.855Z,101776.69
2023-04-02T14:31:39.890Z,101783.16
2023-04-02T14:34:16.108Z,101784.06
2023-04-02T14:36:57.661Z,101783.19
2023-04-02T14:39:33.390Z,101794.22
2023-04-02T14:42:05.739Z,101789.19
2023-04-02T14:44:40.936Z,101798.63
2023-04-02T14:47:18.461Z,101794.16
2023-04-02T14:49:50.451Z,101803.78
2023-04-02T14:52:23.851Z,101803.56
2023-04-02T14:54:55.572Z,101813.22
2023-04-02T14:57:26.448Z,101813.06
2023-04-02T15:00:03.419Z,101812.91
2023-04-02T15:02:42.120Z,101813.31
2023-04-02T15:05:18.370Z,101813.22
2023-04-02T15:07:51.782Z,101816.78
2023-04-02T15:10:26.169Z,101810.91
2023-04-02T15:12:56.207Z,101822.53
2023-04-02T15:15:40.478Z,101831.78
2023-04-02T15:18:14.103Z,101830.16
2023-04-02T15:20:52.351Z,101835.16
2023-04-02T15:23:30.996Z,101838.09
2023-04-02T15:26:08.464Z,101838.44
2023-04-02T15:28:42.594Z,101840.19
2023-04-02T15:31:15.369Z,101845.47
2023-04-02T15:33:45.639Z,101849.84
2023-04-02T15:36:42.646Z,101851.50
2023-04-02T15:39:30.448Z,101853.25
2023-04-02T15:42:09.278Z,101853.94
2023-04-02T15:44:45.486Z,101860.06
2023-04-02T15:47:23.080Z,101864.75
2023-04-02T15:49:59.663Z,101877.91
2023-04-02T15:52:37.121Z,101867.81
2023-04-02T15:55:20.034Z,101880.75
2023-04-02T15:58:02.713Z,101876.50
2023-04-02T16:00:32.614Z,101892.16
2023-04-02T16:03:20.449Z,101880.03
2023-04-02T16:06:01.088Z,101888.44
2023-04-02T16:08:41.973Z,101894.31
2023-04-02T16:11:14.482Z,101905.00
2023-04-02T16:13:43.972Z,101907.41
2023-04-02T16:16:17.481Z,101909.31
2023-04-02T16:18:56.649Z,101915.41
2023-04-02T16:21:28.504Z,101911.38
2023-04-02T16:23:56.573Z,101910.94
2023-04-02T16:26:44.068Z,101924.75
2023-04-02T16:29:33.514Z,101929.03
2023-04-02T16:32:12.741Z,101928.41
2023-04-02T16:34:47.727Z,101943.09
2023-04-02T16:37:27.683Z,101941.19
2023-04-02T16:40:02.443Z,101946.97
2023-04-02T16:42:43.390Z,101951.19
2023-04-02T16:45:29.733Z,101957.56
2023-04-02T16:48:13.164Z,101956.81
2023-04-02T16:50:48.685Z,101968.56
2023-04-02T16:53:32.246Z,101961.44
2023-04-02T16:56:29.043Z,101980.41
2023-04-02T16:59:09.598Z,101973.47
2023-04-02T17:01:47.491Z,101984.81
2023-04-02T17:04:54.625Z,101975.69
2023-04-02T17:07:34.428Z,101981.81
2023-04-02T17:10:29.960Z,101992.88
2023-04-02T17:13:04.037Z,101991.69
2023-04-02T17:15:38.952Z,101989.22
2023-04-02T17:18:16.354Z,101999.81
2023-04-02T17:20:44.880Z,101988.84
2023-04-02T17:23:14.717Z,102000.44
2023-04-02T17:25:49.221Z,102004.34
2023-04-02T17:28:24.835Z,102006.34
2023-04-02T17:30:57.185Z,102009.03
2023-04-02T17:33:27.330Z,102017.63
2023-04-02T17:36:17.633Z,102024.03
2023-04-02T17:38:52.085Z,102035.06
2023-04-02T17:41:24.526Z,102032.88
2023-04-02T17:43:59.053Z,102035.66
2023-04-02T17:46:35.720Z,102041.78
2023-04-02T17:49:12.816Z,102051.69
2023-04-02T17:51:47.691Z,102056.09
2023-04-02T17:54:30.648Z,102050.16
2023-04-02T17:57:18.975Z,102061.94
2023-04-02T18:00:00.250Z,102059.38
2023-04-02T18:02:55.161Z,102068.28
2023-04-02T18:05:30.749Z,102070.03
2023-04-02T18:08:12.383Z,102074.53
2023-04-02T18:10:47.827Z,102068.91
2023-04-02T18:13:28.726Z,102084.56
2023-04-02T18:16:10.567Z,102078.69
2023-04-02T18:18:55.832Z,102086.59
2023-04-02T18:21:29.653Z,102089.19
2023-04-02T18:24:15.065Z,102096.91
2023-04-02T18:26:53.711Z,102097.34
2023-04-02T18:29:32.921Z,102104.56
2023-04-02T18:32:31.954Z,102107.16
2023-04-02T18:35:13.070Z,102108.75
2023-04-02T18:37:54.329Z,102112.81
2023-04-02T18:40:36.158Z,102112.81
2023-04-02T18:43:16.844Z,102115.47
2023-04-02T18:45:54.489Z,102127.63
2023-04-02T18:48:32.583Z,102132.25
2023-04-02T18:51:04.303Z,102132.94
2023-04-02T18:53:34.519Z,102135.63
2023-04-02T18:56:05.793Z,102146.31
2023-04-02T18:58:41.814Z,102145.63
2023-04-02T19:01:14.118Z,102154.28
2023-04-02T19:03:47.632Z,102161.34
2023-04-02T19:06:20.164Z,102157.09
2023-04-02T19:08:52.179Z,102162.19
2023-04-02T19:11:28.512Z,102173.63
2023-04-02T19:13:58.889Z,102174.69
2023-04-02T19:16:45.122Z,102172.91
2023-04-02T19:19:18.633Z,102178.19
2023-04-02T19:22:18.992Z,102183.59
2023-04-02T19:25:03.156Z,102195.44
2023-04-02T19:27:38.006Z,102197.47
2023-04-02T19:30:27.849Z,102194.22
2023-04-02T19:33:08.494Z,102199.59
2023-04-02T19:35:42.728Z,102209.00
2023-04-02T19:38:29.618Z,102204.75
2023-04-02T19:41:06.118Z,102215.41
2023-04-02T19:43:34.456Z,102215.13
2023-04-02T19:46:03.595Z,102215.59
2023-04-02T19:48:42.020Z,102207.78
2023-04-02T19:51:10.588Z,102224.94
2023-04-02T19:53:40.323Z,102227.84
2023-04-02T19:56:08.368Z,102226.03
2023-04-02T19:58:37.455Z,102231.28
2023-04-02T20:01:05.753Z,102231.25
2023-04-02T20:03:34.070Z,102233.13
2023-04-02T20:06:02.345Z,102242.69
2023-04-02T20:08:30.952Z,102237.59
2023-04-02T20:11:03.389Z,102244.59
2023-04-02T20:13:31.737Z,102245.34
2023-04-02T20:16:01.781Z,102244.84
2023-04-02T20:18:30.597Z,102249.78
2023-04-02T20:21:04.166Z,102247.06
2023-04-02T20:23:34.698Z,102255.00
2023-04-02T20:26:05.342Z,102251.84
2023-04-02T20:28:33.996Z,102266.59
2023-04-02T20:31:13.266Z,102264.66
2023-04-02T20:33:42.089Z,102273.63
2023-04-02T20:36:11.867Z,102265.06
2023-04-02T20:38:40.490Z,102280.50
2023-04-02T20:41:10.935Z,102287.41
2023-04-02T20:43:40.541Z,102282.34
2023-04-02T20:46:10.860Z,102286.03
2023-04-02T20:48:40.782Z,102286.94
2023-04-02T20:51:11.269Z,102292.97
2023-04-02T20:53:39.703Z,102299.72
2023-04-02T20:56:08.961Z,102301.78
2023-04-02T20:58:39.482Z,102311.28
2023-04-02T21:01:09.646Z,102308.66
2023-04-02T21:03:37.809Z,102305.16
2023-04-02T21:06:06.850Z,102319.03
2023-04-02T21:08:39.915Z,102314.78
2023-04-02T21:11:08.452Z,102317.38
2023-04-02T21:13:38.380Z,102310.50
2023-04-02T21:16:13.043Z,102314.09
2023-04-02T21:18:40.783Z,102324.50
2023-04-02T21:21:09.745Z,102322.91
2023-04-02T21:23:37.633Z,102322.84
2023-04-02T21:26:07.430Z,102319.44
2023-04-02T21:28:38.016Z,102327.22
2023-04-02T21:31:10.548Z,102323.78
2023-04-02T21:33:40.873Z,102329.81
2023-04-02T21:36:10.389Z,102338.59
2023-04-02T21:38:42.221Z,102332.50
2023-04-02T21:41:18.152Z,102328.22
2023-04-02T21:43:48.291Z,102337.84
2023-04-02T21:46:21.583Z,102341.31
2023-04-02T21:48:50.747Z,102334.47
2023-04-02T21:51:22.043Z,102341.34
2023-04-02T21:53:50.764Z,102345.69
2023-04-02T21:56:19.962Z,102344.03
2023-04-02T21:58:48.401Z,102349.16
2023-04-02T22:01:26.616Z,102353.59
2023-04-02T22:03:55.129Z,102348.38
2023-04-02T22:06:24.740Z,102364.00
2023-04-02T22:08:55.346Z,102363.16
2023-04-02T22:11:25.952Z,102365.84
2023-04-02T22:13:54.637Z,102371.84
2023-04-02T22:16:25.803Z,102369.97
2023-04-02T22:18:55.530Z,102372.66
2023-04-02T22:21:23.840Z,102372.69
2023-04-02T22:23:52.074Z,102372.66
2023-04-02T22:26:22.795Z,102370.16
2023-04-02T22:28:52.345Z,102373.66
2023-04-02T22:31:23.910Z,102371.06
2023-04-02T22:33:52.968Z,102371.97
2023-04-02T22:36:22.144Z,102379.56
2023-04-02T22:38:50.934Z,102381.38
2023-04-02T22:41:21.497Z,102382.22
2023-04-02T22:43:50.240Z,102384.03
2023-04-02T22:46:19.524Z,102382.38
2023-04-02T22:48:49.813Z,102384.91
2023-04-02T22:51:20.188Z,102395.28
2023-04-02T22:53:49.076Z,102400.53
2023-04-02T22:56:19.640Z,102403.16
2023-04-02T22:58:47.698Z,102399.69
2023-04-02T23:01:17.825Z,102404.00
2023-04-02T23:03:45.894Z,102405.78
2023-04-02T23:06:17.516Z,102414.41
2023-04-02T23:08:46.077Z,102419.66
2023-04-02T23:11:16.375Z,102417.84
2023-04-02T23:13:45.606Z,102416.03
2023-04-02T23:16:15.097Z,102415.34
2023-04-02T23:18:45.694Z,102417.94
2023-04-02T23:21:16.262Z,102424.91
2023-04-02T23:23:45.350Z,102423.06
2023-04-02T23:26:15.384Z,102428.25
2023-04-02T23:28:43.710Z,102426.59
2023-04-02T23:31:14.490Z,102431.78
2023-04-02T23:33:42.914Z,102427.53
2023-04-02T23:36:12.346Z,102428.31
2023-04-02T23:38:41.659Z,102425.72
2023-04-02T23:41:14.322Z,102432.63
2023-04-02T23:43:42.337Z,102437.78
2023-04-02T23:46:10.886Z,102445.66
2023-04-02T23:48:38.928Z,102442.19
2023-04-02T23:51:07.387Z,102434.38
2023-04-02T23:53:35.983Z,102449.16
2023-04-02T23:56:06.024Z,102444.84
2023-04-02T23:58:33.956Z,102443.09
